Portada
METAR-TAF:

METAR-TAF

Aeroports :

Doylestown Airport

Doylestown, Pennsilvània, Estats Units d'Amèrica

latitud: 40-19-48N, longitud: 075-07-21W, altitud: 120 m

Observació

L'informe es va fer fa 36 minuts, a les 23:54 UTC
Vent calma
Temperatura 21°C
Humitat 88%
Pressió 1020 hPa
Visibilitat: 16.1 km
Núvols disperses a una alçada de 6000 ft
Núvols disperses a una alçada de 7500 ft
Cel cobert a una alçada de 9500 ft
pluja

METAR: KDYL 072354Z AUTO 00000KT 10SM -RA SCT060 SCT075 OVC095 21/19 A3011 RMK AO2 LTG DSNT E-SW SLP194 P0008 60081 T02110194 10256 20206 50007

Hora: 20:30 (00:30 UTC)


TAF: manca

Observacions i pronòstics meteorològics de més de 4000 aeroports (METAR i TAF).

Les estacions disponibles són els punts grocs i vermells al mapa.

Posi el ratolí al punt desitjat per veure el nom de l'estació.

Feu clic per veure les observacions i els pronòstics meteorològics.

Per canviar el mapa: feu clic els botons verds amb una creu de color negre per apropar; al botó verd amb un guió per allunyar la imatge; o en les fletxes verdes per a mapes adjacents.


METAR-TAF: